Current | Forecast
Updated: 1:20 PM IST on June 27, 2017
Observed at Belfast, Ireland
Temperature 63°F
Humidity 88%
Dew Point 59°F
Wind ESE at 8 mph
Pressure 29.62 in (Steady)
Conditions Mostly Cloudy
Visibility 6.2 miles
UV 5 out of 16
Clouds Scattered Clouds (SCT) : 1200 ft
Mostly Cloudy (BKN) : 1700 ft
Yesterday's Maximum 63°F
Yesterday's Minimum 41°F approx.
Yesterday's Heating Degree Days 13 approx.
Sunrise4:56 AM IST
Sunset10:03 PM IST
Moon Rise9:14 AM IST
Moon Set
Moon PhaseMoon Phase
Waxing Crescent
Raw METARMETAR EGAA 271220Z 12007KT 090V150 9999 SCT012 BKN017 17/15 Q1003


Monday
. High: 57° F.
Tuesday
. High: 53° F.
Wednesday
. High: 51° F.
Thursday
. High: 51° F.
Friday
. High: 50° F.
Saturday
. High: 57° F.
Sunday
. High: 59° F.
Monday
. High: 59° F.

Click here for Marine Information
Scientific forecaster discussion (NWS)

Units: English | Metric

Find the Weather for any City, State or Zipcode, or Country:

U.S. State List | Severe Weather | Tropical Storms | Ski Conditions
United States | Canada | Central America | South America | Asia | Europe | Australia | Africa | Islands

Weather Underground

© Copyright 2017
The Weather Company, LLC